Watford City, ND

1:29 PM CDT on August 23, 2017 (GMT -0500)
Watford City

Weather History for KS25 - October, 2013

Change the Weather History Date:

Friday, October 4, 2013

  Actual Average (KISN) Record (KISN)
Temperature  
Mean Temperature 38 °F -  
Max Temperature 41 °F 61 °F 93 °F (1963)
Min Temperature 35 °F 35 °F 19 °F (2004)
Degree Days  
Heating Degree Days 27    
Moisture  
Dew Point 31 °F    
Average Humidity 77    
Maximum Humidity 93    
Minimum Humidity 65    
Precipitation  
Precipitation 0.00 in - - ()
Sea Level Pressure  
Sea Level Pressure 30.31 in    
Wind  
Wind Speed 11 mph (NNE)    
Max Wind Speed 18 mph    
Max Gust Speed 25 mph    
Visibility 10 miles    
Events      
Averages and records for this station are not official NWS values.
T = Trace of Precipitation, MM = Missing Value Source: NWS Daily Summary

Daily Weather History Graph

Daily Weather History Graph

Search for Another Location

Airport or City:

Trip Planner

Search our weather history database for the weather conditions in past years. The results will help you decide how hot, cold, wet, or windy it might be!

Date:

Astronomy

Oct. 04, 2013 Rise Set
Actual Time 7:56 AM CDT 7:25 PM CDT
Civil Twilight 7:25 AM CDT 7:56 PM CDT
Nautical Twilight 6:50 AM CDT 8:32 PM CDT
Astronomical Twilight 6:13 AM CDT 9:08 PM CDT
Moon 7:35 AM CDT (10/4) 7:06 PM CDT (10/4)
Length of Visible Light 12h 30m
Length of Day
11h 28m
Waning Crescent, 0% of the Moon is Illuminated
Oct 4
Waning Crescent
Oct 4
New
Oct 11
First Quarter
Oct 18
Full
Oct 26
Last Quarter

Hourly Weather History & Observations

Time (CDT) Temp. Windchill Dew Point Humidity Pressure Visibility Wind Dir Wind Speed Gust Speed Precip Events Conditions
12:15 AM 41.0 °F 35.8 °F 35.6 °F 81% 30.24 in 10.0 mi North 8.1 mph - N/A   Overcast
12:35 AM 41.0 °F 34.3 °F 35.6 °F 81% 30.26 in 10.0 mi North 11.5 mph - N/A   Overcast
12:55 AM 41.0 °F 34.7 °F 35.6 °F 81% 30.25 in 10.0 mi North 10.4 mph - N/A   Overcast
1:15 AM 39.2 °F 32.5 °F 35.6 °F 87% 30.25 in 10.0 mi North 10.4 mph - N/A   Scattered Clouds
1:35 AM 39.2 °F 32.5 °F 35.6 °F 87% 30.24 in 10.0 mi North 10.4 mph - N/A   Scattered Clouds
1:55 AM 39.2 °F 33.0 °F 37.4 °F 93% 30.25 in 10.0 mi North 9.2 mph - N/A   Scattered Clouds
2:15 AM 41.0 °F 34.7 °F 37.4 °F 87% 30.25 in 10.0 mi North 10.4 mph - N/A   Mostly Cloudy
2:35 AM 41.0 °F 35.2 °F 37.4 °F 87% 30.26 in 10.0 mi North 9.2 mph - N/A   Overcast
2:55 AM 41.0 °F 35.2 °F 37.4 °F 87% 30.27 in 10.0 mi NNE 9.2 mph - N/A   Overcast
3:15 AM 41.0 °F 34.7 °F 37.4 °F 87% 30.27 in 10.0 mi NNE 10.4 mph - N/A   Overcast
3:35 AM 41.0 °F 34.3 °F 37.4 °F 87% 30.27 in 10.0 mi NE 11.5 mph - N/A   Overcast
3:55 AM 41.0 °F 35.2 °F 35.6 °F 81% 30.28 in 10.0 mi NE 9.2 mph - N/A   Overcast
4:15 AM 41.0 °F 36.4 °F 35.6 °F 81% 30.28 in 10.0 mi NNE 6.9 mph - N/A   Overcast
4:35 AM 41.0 °F 35.2 °F 35.6 °F 81% 30.28 in 10.0 mi North 9.2 mph - N/A   Overcast
4:55 AM 41.0 °F 34.7 °F 35.6 °F 81% 30.29 in 10.0 mi NNE 10.4 mph - N/A   Overcast
5:15 AM 41.0 °F 33.5 °F 35.6 °F 81% 30.29 in 10.0 mi NNE 13.8 mph - N/A   Overcast
5:35 AM 41.0 °F 33.9 °F 35.6 °F 81% 30.30 in 10.0 mi NNE 12.7 mph - N/A   Overcast
5:55 AM 39.2 °F 31.6 °F 35.6 °F 87% 30.30 in 10.0 mi NNE 12.7 mph 18.4 mph N/A   Overcast
6:15 AM 39.2 °F 31.2 °F 33.8 °F 81% 30.30 in 10.0 mi NE 13.8 mph - N/A   Overcast
6:35 AM 39.2 °F 32.0 °F 33.8 °F 81% 30.30 in 10.0 mi NE 11.5 mph 17.3 mph N/A   Overcast
6:55 AM 39.2 °F 33.6 °F 33.8 °F 81% 30.32 in 10.0 mi NE 8.1 mph - N/A   Overcast
7:35 AM 39.2 °F 32.0 °F 32.0 °F 75% 30.33 in 10.0 mi NE 11.5 mph - N/A   Overcast
7:55 AM 37.4 °F 30.3 °F 32.0 °F 81% 30.34 in 10.0 mi NNE 10.4 mph - N/A   Overcast
8:15 AM 37.4 °F 28.9 °F 32.0 °F 81% 30.34 in 10.0 mi NE 13.8 mph - N/A   Overcast
8:35 AM 37.4 °F 29.3 °F 32.0 °F 81% 30.34 in 10.0 mi NE 12.7 mph 19.6 mph N/A   Overcast
8:55 AM 37.4 °F 29.3 °F 32.0 °F 81% 30.34 in 10.0 mi NE 12.7 mph 18.4 mph N/A   Overcast
9:15 AM 37.4 °F 28.2 °F 30.2 °F 75% 30.35 in 10.0 mi NE 16.1 mph - N/A   Overcast
9:35 AM 37.4 °F 29.8 °F 32.0 °F 81% 30.35 in 10.0 mi NNE 11.5 mph - N/A   Overcast
9:55 AM 37.4 °F 29.3 °F 32.0 °F 81% 30.35 in 10.0 mi NE 12.7 mph 18.4 mph N/A   Overcast
10:15 AM 37.4 °F 29.8 °F 32.0 °F 81% 30.35 in 10.0 mi NNE 11.5 mph - N/A   Overcast
10:35 AM 37.4 °F 29.3 °F 32.0 °F 81% 30.35 in 10.0 mi NNE 12.7 mph 17.3 mph N/A   Overcast
10:55 AM 37.4 °F 29.8 °F 32.0 °F 81% 30.36 in 10.0 mi NNE 11.5 mph - N/A   Overcast
11:15 AM 37.4 °F 29.8 °F 32.0 °F 81% 30.36 in 10.0 mi NNE 11.5 mph 18.4 mph N/A   Overcast
11:35 AM 39.2 °F 31.2 °F 32.0 °F 75% 30.36 in 10.0 mi NNE 13.8 mph 19.6 mph N/A   Overcast
11:55 AM 37.4 °F 29.8 °F 32.0 °F 81% 30.37 in 10.0 mi NE 11.5 mph 19.6 mph N/A   Overcast
12:15 PM 39.2 °F 30.8 °F 32.0 °F 75% 30.37 in 10.0 mi NNE 15.0 mph - N/A   Overcast
12:35 PM 37.4 °F 29.3 °F 32.0 °F 81% 30.36 in 10.0 mi NE 12.7 mph - N/A   Overcast
12:55 PM 39.2 °F 31.6 °F 32.0 °F 75% 30.36 in 10.0 mi NNE 12.7 mph - N/A   Overcast
1:15 PM 39.2 °F 31.6 °F 32.0 °F 75% 30.35 in 10.0 mi North 12.7 mph - N/A   Overcast
1:35 PM 37.4 °F 28.9 °F 32.0 °F 81% 30.34 in 10.0 mi North 13.8 mph - N/A   Overcast
1:55 PM 37.4 °F 30.3 °F 32.0 °F 81% 30.36 in 10.0 mi NNE 10.4 mph - N/A   Overcast
2:15 PM 37.4 °F 30.3 °F 32.0 °F 81% 30.34 in 10.0 mi NNE 10.4 mph - N/A   Overcast
2:35 PM 37.4 °F 28.9 °F 32.0 °F 81% 30.33 in 10.0 mi NNE 13.8 mph 18.4 mph N/A   Overcast
2:55 PM 37.4 °F 29.8 °F 32.0 °F 81% 30.34 in 10.0 mi NNE 11.5 mph - N/A   Overcast
3:15 PM 39.2 °F 32.0 °F 32.0 °F 75% 30.34 in 10.0 mi North 11.5 mph 17.3 mph N/A   Overcast
3:35 PM 39.2 °F 30.5 °F 32.0 °F 75% 30.33 in 10.0 mi NNE 16.1 mph - N/A   Overcast
3:55 PM 39.2 °F 30.8 °F 30.2 °F 70% 30.33 in 10.0 mi North 15.0 mph - N/A   Mostly Cloudy
4:15 PM 39.2 °F 30.5 °F 28.4 °F 65% 30.32 in 10.0 mi NNE 16.1 mph 23.0 mph N/A   Mostly Cloudy
4:35 PM 37.4 °F 27.8 °F 26.6 °F 65% 30.32 in 10.0 mi NNE 17.3 mph 23.0 mph N/A   Partly Cloudy
4:55 PM 37.4 °F 27.5 °F 26.6 °F 65% 30.32 in 10.0 mi North 18.4 mph 24.2 mph N/A   Partly Cloudy
5:15 PM 37.4 °F 27.5 °F 26.6 °F 65% 30.32 in 10.0 mi NNE 18.4 mph 25.3 mph N/A   Clear
5:35 PM 37.4 °F 28.9 °F 26.6 °F 65% 30.32 in 10.0 mi North 13.8 mph 24.2 mph N/A   Clear
5:55 PM 37.4 °F 27.8 °F 26.6 °F 65% 30.32 in 10.0 mi North 17.3 mph - N/A   Clear
6:15 PM 37.4 °F 27.8 °F 26.6 °F 65% 30.32 in 10.0 mi NNE 17.3 mph 23.0 mph N/A   Clear
6:35 PM 37.4 °F 28.2 °F 26.6 °F 65% 30.31 in 10.0 mi NNE 16.1 mph 20.7 mph N/A   Clear
6:55 PM 37.4 °F 29.3 °F 26.6 °F 65% 30.32 in 10.0 mi North 12.7 mph - N/A   Clear
7:15 PM 37.4 °F 28.5 °F 26.6 °F 65% 30.31 in 10.0 mi NNE 15.0 mph 21.9 mph N/A   Clear
7:35 PM 37.4 °F 29.8 °F 26.6 °F 65% 30.30 in 10.0 mi North 11.5 mph - N/A   Clear
7:55 PM 35.6 °F 28.0 °F 26.6 °F 70% 30.30 in 10.0 mi North 10.4 mph - N/A   Clear
8:15 PM 35.6 °F 28.0 °F 26.6 °F 70% 30.29 in 10.0 mi North 10.4 mph - N/A   Clear
8:35 PM 35.6 °F 27.5 °F 26.6 °F 70% 30.28 in 10.0 mi North 11.5 mph - N/A   Clear
8:55 PM 35.6 °F 28.0 °F 26.6 °F 70% 30.27 in 10.0 mi North 10.4 mph - N/A   Clear
9:15 PM 35.6 °F 28.0 °F 26.6 °F 70% 30.27 in 10.0 mi North 10.4 mph - N/A   Clear
9:35 PM 35.6 °F 27.5 °F 26.6 °F 70% 30.28 in 10.0 mi North 11.5 mph 16.1 mph N/A   Clear
9:55 PM 35.6 °F 28.6 °F 26.6 °F 70% 30.29 in 10.0 mi NNE 9.2 mph - N/A   Clear
10:15 PM 35.6 °F 28.6 °F 26.6 °F 70% 30.29 in 10.0 mi North 9.2 mph - N/A   Clear
10:35 PM 35.6 °F 28.6 °F 26.6 °F 70% 30.28 in 10.0 mi North 9.2 mph - N/A   Clear
10:55 PM 35.6 °F 28.6 °F 26.6 °F 70% 30.27 in 10.0 mi North 9.2 mph - N/A   Clear
11:15 PM 35.6 °F 29.2 °F 26.6 °F 70% 30.27 in 10.0 mi North 8.1 mph - N/A   Clear
11:35 PM 35.6 °F 29.9 °F 26.6 °F 70% 30.27 in 10.0 mi North 6.9 mph - N/A   Clear
11:55 PM 35.6 °F 30.7 °F 26.6 °F 70% 30.26 in 10.0 mi North 5.8 mph - N/A   Clear